Ana Sayfa
METAR-TAF:

METAR-TAF

Havaalanları :

Wood County Airport

Mineola / Quitman, Teksas, Amerika Birleşik Devletleri

Enlem: 32-44-31N, Boylam: 095-29-47W, yükseklik: 132 m

Güncel hava durumu gözlemi

Rapor saat 21:35 UTC de 23 dakika önce yapıldı.
Rüzgar güney/güneydoğudan 6 kt
Sıcaklık 28°C
Nem 70%
Basınç 1008 hPa
Görüş mesafesi: 16.1 km
3100 ft yükseklikte parçalı bulutlu

METAR: KJDD 232135Z AUTO 15006KT 10SM SCT031 28/22 A2978 RMK AO2 LTG DSNT SW

Saat: 16:58 (21:58 UTC)


TAF: eksik

4.000'den fazla havaalanı için hava durumu gözlemleri ve tahminleri (METAR ve TAF raporları).

Kullanılabilir istasyonlar harita üzerinde sarı ve kırmızı noktalarla gösterilir.

İstasyonun adını görmek için fareyi noktanın üzerinde gezdirin.

Sonrasında hava gözlem ve tahminlerini görmek için tıklayın.

Haritayı değiştirmek için: yaklaştırmak için siyah artı işaretli yeşil düğmeye ve uzaklaştırmak için de eksi işaretli düğmeye hızla tıklayın; bitişik haritalar için yeşil okları kullanın.


METAR-TAF: